Map

Track Data

SID SEASON NUMBER BASIN SUBBASIN NAME ISO_TIME NATURE LAT LON WMO_WIND WMO_PRES WMO_AGENCY TRACK_TYPE DIST2LAND LANDFALL IFLAG USA_AGENCY USA_ATCF_ID USA_LAT USA_LON USA_RECORD USA_STATUS USA_WIND USA_PRES USA_SSHS USA_R34_NE USA_R34_SE USA_R34_SW USA_R34_NW USA_R50_NE USA_R50_SE USA_R50_SW USA_R50_NW USA_R64_NE USA_R64_SE USA_R64_SW USA_R64_NW USA_POCI USA_ROCI USA_RMW USA_EYE TOKYO_LAT TOKYO_LON TOKYO_GRADE TOKYO_WIND TOKYO_PRES TOKYO_R50_DIR TOKYO_R50_LONG TOKYO_R50_SHORT TOKYO_R30_DIR TOKYO_R30_LONG TOKYO_R30_SHORT TOKYO_LAND CMA_LAT CMA_LON CMA_CAT CMA_WIND CMA_PRES HKO_LAT HKO_LON HKO_CAT HKO_WIND HKO_PRES NEWDELHI_LAT NEWDELHI_LON NEWDELHI_GRADE NEWDELHI_WIND NEWDELHI_PRES NEWDELHI_CI NEWDELHI_DP NEWDELHI_POCI REUNION_LAT REUNION_LON REUNION_TYPE REUNION_WIND REUNION_PRES REUNION_TNUM REUNION_CI REUNION_RMW REUNION_R34_NE REUNION_R34_SE REUNION_R34_SW REUNION_R34_NW REUNION_R50_NE REUNION_R50_SE REUNION_R50_SW REUNION_R50_NW REUNION_R64_NE REUNION_R64_SE REUNION_R64_SW REUNION_R64_NW BOM_LAT BOM_LON BOM_TYPE BOM_WIND BOM_PRES BOM_TNUM BOM_CI BOM_RMW BOM_R34_NE BOM_R34_SE BOM_R34_SW BOM_R34_NW BOM_R50_NE BOM_R50_SE BOM_R50_SW BOM_R50_NW BOM_R64_NE BOM_R64_SE BOM_R64_SW BOM_R64_NW BOM_ROCI BOM_POCI BOM_EYE BOM_POS_METHOD BOM_PRES_METHOD NADI_LAT NADI_LON NADI_CAT NADI_WIND NADI_PRES WELLINGTON_LAT WELLINGTON_LON WELLINGTON_WIND WELLINGTON_PRES DS824_LAT DS824_LON DS824_STAGE DS824_WIND DS824_PRES TD9636_LAT TD9636_LON TD9636_STAGE TD9636_WIND TD9636_PRES TD9635_LAT TD9635_LON TD9635_WIND TD9635_PRES TD9635_ROCI NEUMANN_LAT NEUMANN_LON NEUMANN_CLASS NEUMANN_WIND NEUMANN_PRES MLC_LAT MLC_LON MLC_CLASS MLC_WIND MLC_PRES USA_GUST BOM_GUST BOM_GUST_PER REUNION_GUST REUNION_GUST_PER USA_SEAHGT USA_SEARAD_NE USA_SEARAD_SE USA_SEARAD_SW USA_SEARAD_NW STORM_SPEED STORM_DIR
1890266N18085 1890 30 NI BB NOT_NAMED 1890-09-23 00:00:00 TS 18.2000 85.3000 main 99 86 _________O____ -1 18.2000 85.3000 TC 45 3 353
1890266N18085 1890 30 NI BB NOT_NAMED 1890-09-23 03:00:00 TS 18.3667 85.2733 main 86 67 _________PO___ -1 18.4500 85.2600 TC 45 18.2000 85.3000 3 4 347
1890266N18085 1890 30 NI BB NOT_NAMED 1890-09-23 06:00:00 TS 18.6032 85.2113 main 67 47 _________OP___ -1 18.7000 85.2000 TC 45 18.4580 85.2283 3 5 344
1890266N18085 1890 30 NI BB NOT_NAMED 1890-09-23 09:00:00 TS 18.8483 85.1280 main 47 23 _________PP___ -1 18.9500 85.1075 TC 45 18.7127 85.1553 3 5 341
1890266N18085 1890 30 NI BB NOT_NAMED 1890-09-23 12:00:00 TS 19.0806 85.0398 main 23 10 _________OP___ -1 19.2000 85.0000 TC 45 18.9611 85.0796 3 5 341
1890266N18085 1890 30 NI BB NOT_NAMED 1890-09-23 15:00:00 TS 19.3325 84.9575 main 10 0 _________PO___ -1 19.4650 84.9149 TC 41 19.2000 85.0000 3 5 340
1890266N18085 1890 30 NI BB NOT_NAMED 1890-09-23 18:00:00 TS 19.5631 84.8560 main 0 0 _________OP___ -1 19.7000 84.8000 TC 37 19.4262 84.9120 3 5 332
1890266N18085 1890 30 NI BB NOT_NAMED 1890-09-23 21:00:00 TS 19.7509 84.7210 main 0 0 _________PP___ -1 19.8649 84.6449 TC 33 19.6369 84.7972 3 5 318
1890266N18085 1890 30 NI BB NOT_NAMED 1890-09-24 00:00:00 TS 19.9146 84.5169 main 0 0 _________OP___ -1 20.0000 84.4000 TC 30 19.8292 84.6338 3 6 305
1890266N18085 1890 30 NI BB NOT_NAMED 1890-09-24 03:00:00 TS 20.0788 84.2150 main 0 0 _________PO___ -1 20.1576 84.0301 TC 30 20.0000 84.4000 1 7 296
1890266N18085 1890 30 NI BB NOT_NAMED 1890-09-24 06:00:00 TS 20.2126 83.8699 main 0 0 _________OP___ -1 20.3000 83.6000 TC 30 20.1251 84.1397 1 7 290
1890266N18085 1890 30 NI BB NOT_NAMED 1890-09-24 09:00:00 TS 20.3086 83.5337 main 0 0 _________PP___ -1 20.3843 83.2669 TC 30 20.2330 83.8005 1 8 286
1890266N18085 1890 30 NI BB NOT_NAMED 1890-09-24 12:00:00 TS 20.4247 83.0805 main 0 0 _________OP___ -1 20.5000 82.8000 TC 30 20.3495 83.3611 1 11 286
1890266N18085 1890 30 NI BB NOT_NAMED 1890-09-24 15:00:00 TS 20.6140 82.4051 main 0 0 _________PO___ -1 20.7280 82.0103 TC 30 20.5000 82.8000 1 15 287
1890266N18085 1890 30 NI BB NOT_NAMED 1890-09-24 18:00:00 TS 20.8572 81.5268 main 0 0 _________OP___ -1 21.0000 81.1000 TC 30 20.7145 81.9536 1 18 286
1890266N18085 1890 30 NI BB NOT_NAMED 1890-09-24 21:00:00 TS 21.1060 80.5958 main 0 0 _________PP___ -1 21.2506 80.1803 TC 30 20.9614 81.0112 1 17 288
1890266N18085 1890 30 NI BB NOT_NAMED 1890-09-25 00:00:00 TS 21.3634 79.8190 main 0 0 _________OP___ -1 21.5000 79.5000 TC 30 21.2268 80.1379 1 12 295
1890266N18085 1890 30 NI BB NOT_NAMED 1890-09-25 03:00:00 TS 21.6209 79.3998 main 0 0 _________PO___ -1 21.7418 79.2997 TC 30 21.5000 79.5000 1 7 320
1890266N18085 1890 30 NI BB NOT_NAMED 1890-09-25 06:00:00 TS 21.8887 79.3451 main 0 0 _________OP___ -1 22.0000 79.4000 TC 30 21.7774 79.2901 1 6 4
1890266N18085 1890 30 NI BB NOT_NAMED 1890-09-25 09:00:00 TS 22.1849 79.4475 main 0 0 _________PP___ -1 22.3076 79.5623 TC 30 22.0622 79.3327 1 7 27
1890266N18085 1890 30 NI BB NOT_NAMED 1890-09-25 12:00:00 TS 22.4705 79.6671 main 0 0 _________OP___ -1 22.6000 79.8000 TC 30 22.3410 79.5342 1 7 38
1890266N18085 1890 30 NI BB NOT_NAMED 1890-09-25 15:00:00 TS 22.7075 79.8963 main 0 0 _________PO___ -1 22.8149 79.9927 TC 30 22.6000 79.8000 1 6 40
1890266N18085 1890 30 NI BB NOT_NAMED 1890-09-25 18:00:00 TS 22.9148 80.0788 main 0 0 _________OP___ -1 23.0000 80.2000 TC 30 22.8295 79.9576 1 6 42
1890266N18085 1890 30 NI BB NOT_NAMED 1890-09-25 21:00:00 TS 23.1223 80.2939 main 0 0 _________PP___ -1 23.2074 80.4276 TC 30 23.0372 80.1602 1 6 48
1890266N18085 1890 30 NI BB NOT_NAMED 1890-09-26 00:00:00 TS 23.3131 80.5538 main 0 0 _________OP___ -1 23.4000 80.7000 TC 30 23.2263 80.4077 1 6 56
1890266N18085 1890 30 NI BB NOT_NAMED 1890-09-26 03:00:00 TS 23.4787 80.8638 main 0 0 _________PO___ -1 23.5575 81.0276 TC 30 23.4000 80.7000 1 7 62
1890266N18085 1890 30 NI BB NOT_NAMED 1890-09-26 06:00:00 TS 23.6362 81.2099 main 0 0 _________OP___ -1 23.7000 81.4000 TC 30 23.5724 81.0198 1 7 64
1890266N18085 1890 30 NI BB NOT_NAMED 1890-09-26 09:00:00 TS 23.7936 81.5838 main 0 0 _________PP___ -1 23.8574 81.7850 TC 30 23.7298 81.3826 1 8 67
1890266N18085 1890 30 NI BB NOT_NAMED 1890-09-26 12:00:00 TS 23.9362 81.9896 main 0 0 _________OP___ -1 24.0000 82.2000 TC 30 23.8723 81.7792 1 8 71
1890266N18085 1890 30 NI BB NOT_NAMED 1890-09-26 15:00:00 TS 24.0537 82.4213 main 0 0 _________PO___ -1 24.1074 82.6426 TC 30 24.0000 82.2000 1 8 74
1890266N18085 1890 30 NI BB NOT_NAMED 1890-09-26 18:00:00 TS 24.1507 82.8352 main 0 0 _________OP___ -1 24.2000 83.1000 TC 30 24.1137 82.6367 1 8 76
1890266N18085 1890 30 NI BB NOT_NAMED 1890-09-26 21:00:00 TS 24.2487 83.2717 main 0 0 _________PP___ -1 24.2977 83.5523 TC 30 24.2160 83.0846 1 8 76
1890266N18085 1890 30 NI BB NOT_NAMED 1890-09-27 00:00:00 TS 24.3403 83.6935 main 0 0 _________OP___ -1 24.4000 84.0000 TC 30 24.3104 83.5402 1 7 77
1890266N18085 1890 30 NI BB NOT_NAMED 1890-09-27 03:00:00 NR 24.4000 84.0000 main 0 __________O___ -1 TC 24.4000 84.0000 1 6 78

About IBTrACS Database

This database is a web-friendly format of International Best Track Archive for Climate Stewardship (IBTrACS), a global best track data archive curated by NOAA dating back to 1842.

Updated: 2021-10-21